Port Moresby Jacksons International Airport

AYPY · National Capital, Papua-Nova Guiné

7 de outubro de 2022

Hora Código Clima Temp. Visibilidade Tecto Vento METAR/SPECI
07:00
V
25 °C 10 km+ - Var Var 3 kt METAR AYNZ 062100Z VRB03KT 9999 FEW030 SCT050 25/21 Q1011=
06:00
V
24 °C 10 km+ - Var Var 3 kt METAR AYNZ 062000Z VRB03KT 9999 FEW020 SCT050 24/22 Q1010=

6 de outubro de 2022

Hora Código Clima Temp. Visibilidade Tecto Vento METAR/SPECI
19:00
V
28 °C 10 km+ - 090° 090° 10 kt METAR AYNZ 060900Z 09010KT 9999 SCT050 28/22 Q1008
18:00
V
29 °C 10 km+ - 090° 090° 10 - 15 kt METAR AYNZ 060800Z 09010G15KT 9999 SCT050 29/21 Q1007=
17:00
V
32 °C 10 km+ - 100° 100° 15 - 20 kt METAR AYNZ 060700Z 10015G20KT 9999 SCT050 32/21 Q1006
16:00
V
33 °C 10 km+ - 090° 090° 15 - 20 kt METAR AYNZ 060600Z 09015G20KT 9999 SCT050 33/22 Q1006
15:00
V
33 °C 10 km+ - 070° 070° 15 - 20 kt METAR AYNZ 060500Z 07015G20KT 9999 SCT050 33/22 Q1007
14:00
V
30 °C 10 km+ - 040° 040° 5 - 10 kt METAR AYNZ 060400Z 04005G10KT 9999 SCT050 30/22 Q1008 RMK
13:00
V
30 °C 10 km+ 5.000 ft 050° 050° 5 - 15 kt METAR AYNZ 060300Z 05005G15KT 9999 BKN050 30/22 Q1009 RMK
12:00
V
32 °C 10 km+ - 080° 080° 5 - 10 kt METAR AYNZ 060200Z 08005G10KT 9999 HZ SCT030 SCT050 32/20 Q1010
11:00
V
32 °C 10 km+ - Var Var 4 kt METAR AYNZ 060100Z VRB04KT 9999 HZ SCT035 32/23 Q1011
10:00
V
31 °C 10 km+ - Var Var 4 kt METAR AYNZ 060000Z VRB04KT 9999 HZ SCT035 31/22 Q1012=
09:00
V
29 °C 10 km+ - Var Var 3 kt METAR AYNZ 052300Z VRB03KT 9999 HZ SCT050 29/22 Q1012
08:00
V
28 °C 10 km+ - Var Var 3 kt METAR AYNZ 052200Z VRB03KT 9999 HZ SCT050 28/22 Q1012
07:00
V
26 °C 10 km+ - Var Var 3 kt METAR AYNZ 052100Z VRB03KT 9999 HZ SCT020 SCT050 26/21 Q1011
06:00
V
25 °C 10 km+ - Var Var 3 kt METAR AYNZ 052000Z VRB03KT 9999 HZ SCT020 SCT050 25/21 Q1010=

5 de outubro de 2022

Hora Código Clima Temp. Visibilidade Tecto Vento METAR/SPECI
17:00
V
28 °C 10 km+ - 090° 090° 10 - 20 kt METAR AYNZ 050700Z 09010G20KT 9999 +HZ SCT040 SCT050 28/22 Q1008
16:00
V
29 °C 10 km+ - 090° 090° 10 - 20 kt METAR AYNZ 050600Z 09010G20KT 9999 +HZ SCT040 SCT050 29/21 Q1007
13:00
V
33 °C 10 km+ - 070° 070° 15 kt METAR AYNZ 050300Z 07015KT 9999 +HZ SCT030 SCT040 33/21 Q1009
11:00
V
31 °C 10 km+ - 060° 060° 7 kt METAR AYNZ 050100Z 06007KT 9999 +HZ SCT025 SCT040 31/22 Q1011
10:00
V
29 °C 10 km+ - Var Var 3 kt METAR AYNZ 050000Z VRB03KT 9999 HZ SCT025 SCT040 29/22 Q1012
09:00
V
27 °C 10 km+ - Var Var 3 kt METAR AYNZ 042300Z VRB03KT 9999 HZ FEW010 SCT025 27/22 Q1012
08:00
V
25 °C 10 km+ - Var Var 3 kt METAR AYNZ 042200Z VRB03KT 9999 HZ FEW005 SCT025 25/21 Q1012
07:00
V
25 °C 10 km+ - 310° 310° 5 kt METAR AYNZ 042100Z 31005KT 9999 HZ SCT025 25/20 Q1011
06:00
V
25 °C 10 km+ - 310° 310° 5 kt METAR AYNZ 042000Z 31005KT 9999 HZ SCT050 25/18 Q1010
Dados mais antigos

Nós e terceiros acompanhamos seu comportamento na internet em nosso site com cookies. Se você continuar, nós assumimos que você concorda com nossa política de cookies. Saiba mais